Terminal Aerodrome Forecast
Issued by NWS

Home | Current Version | Previous Version | Text Only | Print | Product List | Glossary On
Versions: 1 2 3 4 5 6 7 8 9 10 11 12 13 14 15 16 17 18 19 20 21 22 23 24 25 26 27 28 29 30 31 32 33 34 35 36 37 38 39 40 41 42 43 44
000
FTUS43 KDLH 301128
TAFHYR
TAF
KHYR 301128Z 3012/0112 04010KT P6SM OVC008
     FM301300 03008KT P6SM SCT010 OVC015
     FM301600 04007KT P6SM BKN020
     FM301800 04006KT P6SM SKC=

USA.gov is the U.S. government's official web portal to all federal, state and local government web resources and services.